sensor_id;sensor_type;location;lat;lon;timestamp;temperature;humidity
12111;DHT22;6119;52.372;8.990;2022-09-21T00:01:41;9.80;99.90
12111;DHT22;6119;52.372;8.990;2022-09-21T00:04:29;9.70;99.90
12111;DHT22;6119;52.372;8.990;2022-09-21T00:07:16;9.70;99.90
12111;DHT22;6119;52.372;8.990;2022-09-21T00:10:03;9.70;99.90
12111;DHT22;6119;52.372;8.990;2022-09-21T00:12:49;9.70;99.90
12111;DHT22;6119;52.372;8.990;2022-09-21T00:15:38;9.60;99.90
12111;DHT22;6119;52.372;8.990;2022-09-21T00:18:25;9.60;99.90
12111;DHT22;6119;52.372;8.990;2022-09-21T00:21:14;9.60;99.90
12111;DHT22;6119;52.372;8.990;2022-09-21T00:24:01;9.60;99.90
12111;DHT22;6119;52.372;8.990;2022-09-21T00:26:48;9.50;99.90
12111;DHT22;6119;52.372;8.990;2022-09-21T00:29:35;9.50;99.90
12111;DHT22;6119;52.372;8.990;2022-09-21T00:32:21;9.40;99.90
12111;DHT22;6119;52.372;8.990;2022-09-21T00:35:09;9.40;99.90
12111;DHT22;6119;52.372;8.990;2022-09-21T00:38:00;9.50;99.90
12111;DHT22;6119;52.372;8.990;2022-09-21T00:40:47;9.60;99.90
12111;DHT22;6119;52.372;8.990;2022-09-21T00:43:35;9.50;99.90
12111;DHT22;6119;52.372;8.990;2022-09-21T00:46:26;9.60;99.90
12111;DHT22;6119;52.372;8.990;2022-09-21T00:49:14;9.60;99.90
12111;DHT22;6119;52.372;8.990;2022-09-21T00:52:02;9.60;99.90
12111;DHT22;6119;52.372;8.990;2022-09-21T00:54:54;9.60;99.90
12111;DHT22;6119;52.372;8.990;2022-09-21T00:57:43;9.70;99.90
12111;DHT22;6119;52.372;8.990;2022-09-21T01:00:32;9.70;99.90
12111;DHT22;6119;52.372;8.990;2022-09-21T01:03:18;9.80;99.90
12111;DHT22;6119;52.372;8.990;2022-09-21T01:06:05;9.80;99.90
12111;DHT22;6119;52.372;8.990;2022-09-21T01:08:54;9.80;99.90
12111;DHT22;6119;52.372;8.990;2022-09-21T01:11:51;9.80;99.90
12111;DHT22;6119;52.372;8.990;2022-09-21T01:14:52;9.70;99.90
12111;DHT22;6119;52.372;8.990;2022-09-21T01:17:47;9.70;99.90
12111;DHT22;6119;52.372;8.990;2022-09-21T01:20:54;9.70;99.90
12111;DHT22;6119;52.372;8.990;2022-09-21T01:24:11;9.70;99.90
12111;DHT22;6119;52.372;8.990;2022-09-21T01:30:33;9.70;99.90
12111;DHT22;6119;52.372;8.990;2022-09-21T01:33:24;9.60;99.90
12111;DHT22;6119;52.372;8.990;2022-09-21T01:36:14;9.50;99.90
12111;DHT22;6119;52.372;8.990;2022-09-21T01:39:03;9.50;99.90
12111;DHT22;6119;52.372;8.990;2022-09-21T01:41:51;9.50;99.90
12111;DHT22;6119;52.372;8.990;2022-09-21T01:44:40;9.40;99.90
12111;DHT22;6119;52.372;8.990;2022-09-21T01:47:29;9.30;99.90
12111;DHT22;6119;52.372;8.990;2022-09-21T01:50:18;9.30;99.90
12111;DHT22;6119;52.372;8.990;2022-09-21T01:53:08;9.20;99.90
12111;DHT22;6119;52.372;8.990;2022-09-21T01:55:58;9.20;99.90
12111;DHT22;6119;52.372;8.990;2022-09-21T01:58:49;9.20;99.90
12111;DHT22;6119;52.372;8.990;2022-09-21T02:01:44;9.10;99.90
12111;DHT22;6119;52.372;8.990;2022-09-21T02:04:34;9.10;99.90
12111;DHT22;6119;52.372;8.990;2022-09-21T02:07:20;9.10;99.90
12111;DHT22;6119;52.372;8.990;2022-09-21T02:10:09;9.10;99.90
12111;DHT22;6119;52.372;8.990;2022-09-21T02:13:01;9.10;99.90
12111;DHT22;6119;52.372;8.990;2022-09-21T02:16:03;9.00;99.90
12111;DHT22;6119;52.372;8.990;2022-09-21T02:19:04;9.00;99.90
12111;DHT22;6119;52.372;8.990;2022-09-21T02:22:01;8.90;99.90
12111;DHT22;6119;52.372;8.990;2022-09-21T02:24:54;8.90;99.90
12111;DHT22;6119;52.372;8.990;2022-09-21T02:27:48;8.90;99.90
12111;DHT22;6119;52.372;8.990;2022-09-21T02:30:36;8.80;99.90
12111;DHT22;6119;52.372;8.990;2022-09-21T02:33:27;8.90;99.90
12111;DHT22;6119;52.372;8.990;2022-09-21T02:36:20;8.80;99.90
12111;DHT22;6119;52.372;8.990;2022-09-21T02:39:11;8.80;99.90
12111;DHT22;6119;52.372;8.990;2022-09-21T02:42:06;8.80;99.90
12111;DHT22;6119;52.372;8.990;2022-09-21T02:45:01;8.70;99.90
12111;DHT22;6119;52.372;8.990;2022-09-21T02:47:54;8.80;99.90
12111;DHT22;6119;52.372;8.990;2022-09-21T02:50:46;8.70;99.90
12111;DHT22;6119;52.372;8.990;2022-09-21T02:53:35;8.70;99.90
12111;DHT22;6119;52.372;8.990;2022-09-21T02:56:24;8.70;99.90
12111;DHT22;6119;52.372;8.990;2022-09-21T02:59:11;8.60;99.90
12111;DHT22;6119;52.372;8.990;2022-09-21T03:01:58;8.60;99.90
12111;DHT22;6119;52.372;8.990;2022-09-21T03:04:46;8.60;99.90
12111;DHT22;6119;52.372;8.990;2022-09-21T03:07:34;8.60;99.90
12111;DHT22;6119;52.372;8.990;2022-09-21T03:10:20;8.60;99.90
12111;DHT22;6119;52.372;8.990;2022-09-21T03:13:08;8.60;99.90
12111;DHT22;6119;52.372;8.990;2022-09-21T03:16:00;8.60;99.90
12111;DHT22;6119;52.372;8.990;2022-09-21T03:18:47;8.60;99.90
12111;DHT22;6119;52.372;8.990;2022-09-21T03:21:33;8.60;99.90
12111;DHT22;6119;52.372;8.990;2022-09-21T03:24:20;8.50;99.90
12111;DHT22;6119;52.372;8.990;2022-09-21T03:27:21;8.50;99.90
12111;DHT22;6119;52.372;8.990;2022-09-21T03:30:10;8.40;99.90
12111;DHT22;6119;52.372;8.990;2022-09-21T03:32:57;8.40;99.90
12111;DHT22;6119;52.372;8.990;2022-09-21T03:35:44;8.40;99.90
12111;DHT22;6119;52.372;8.990;2022-09-21T03:38:30;8.40;99.90
12111;DHT22;6119;52.372;8.990;2022-09-21T03:41:17;8.40;99.90
12111;DHT22;6119;52.372;8.990;2022-09-21T03:44:03;8.40;99.90
12111;DHT22;6119;52.372;8.990;2022-09-21T03:46:51;8.40;99.90
12111;DHT22;6119;52.372;8.990;2022-09-21T03:49:38;8.40;99.90
12111;DHT22;6119;52.372;8.990;2022-09-21T03:52:25;8.40;99.90
12111;DHT22;6119;52.372;8.990;2022-09-21T03:55:11;8.40;99.90
12111;DHT22;6119;52.372;8.990;2022-09-21T03:57:59;8.30;99.90
12111;DHT22;6119;52.372;8.990;2022-09-21T04:00:45;8.30;99.90
12111;DHT22;6119;52.372;8.990;2022-09-21T04:03:33;8.20;99.90
12111;DHT22;6119;52.372;8.990;2022-09-21T04:06:20;8.20;99.90
12111;DHT22;6119;52.372;8.990;2022-09-21T04:09:07;8.20;99.90
12111;DHT22;6119;52.372;8.990;2022-09-21T04:11:53;8.20;99.90
12111;DHT22;6119;52.372;8.990;2022-09-21T04:14:40;8.20;99.90
12111;DHT22;6119;52.372;8.990;2022-09-21T04:17:27;8.20;99.90
12111;DHT22;6119;52.372;8.990;2022-09-21T04:20:17;8.20;99.90
12111;DHT22;6119;52.372;8.990;2022-09-21T04:23:03;8.20;99.90
12111;DHT22;6119;52.372;8.990;2022-09-21T04:25:54;8.20;99.90
12111;DHT22;6119;52.372;8.990;2022-09-21T04:28:41;8.20;99.90
12111;DHT22;6119;52.372;8.990;2022-09-21T04:31:28;8.10;99.90
12111;DHT22;6119;52.372;8.990;2022-09-21T04:34:15;8.20;99.90
12111;DHT22;6119;52.372;8.990;2022-09-21T04:37:03;8.00;99.90
12111;DHT22;6119;52.372;8.990;2022-09-21T04:39:49;8.00;99.90
12111;DHT22;6119;52.372;8.990;2022-09-21T04:42:36;8.00;99.90
12111;DHT22;6119;52.372;8.990;2022-09-21T04:45:23;8.00;99.90
12111;DHT22;6119;52.372;8.990;2022-09-21T04:48:10;8.00;99.90
12111;DHT22;6119;52.372;8.990;2022-09-21T04:50:56;8.00;99.90
12111;DHT22;6119;52.372;8.990;2022-09-21T04:53:44;8.00;99.90
12111;DHT22;6119;52.372;8.990;2022-09-21T04:56:31;8.00;99.90
12111;DHT22;6119;52.372;8.990;2022-09-21T04:59:17;8.00;99.90
12111;DHT22;6119;52.372;8.990;2022-09-21T05:02:04;8.00;99.90
12111;DHT22;6119;52.372;8.990;2022-09-21T05:04:50;8.00;99.90
12111;DHT22;6119;52.372;8.990;2022-09-21T05:07:36;7.90;99.90
12111;DHT22;6119;52.372;8.990;2022-09-21T05:10:24;7.90;99.90
12111;DHT22;6119;52.372;8.990;2022-09-21T05:13:10;7.90;99.90
12111;DHT22;6119;52.372;8.990;2022-09-21T05:16:02;7.80;99.90
12111;DHT22;6119;52.372;8.990;2022-09-21T05:18:52;7.80;99.90
12111;DHT22;6119;52.372;8.990;2022-09-21T05:21:39;7.80;99.90
12111;DHT22;6119;52.372;8.990;2022-09-21T05:24:25;7.80;99.90
12111;DHT22;6119;52.372;8.990;2022-09-21T05:27:13;7.80;99.90
12111;DHT22;6119;52.372;8.990;2022-09-21T05:30:00;7.80;99.90
12111;DHT22;6119;52.372;8.990;2022-09-21T05:32:51;7.80;99.90
12111;DHT22;6119;52.372;8.990;2022-09-21T05:35:46;7.80;99.90
12111;DHT22;6119;52.372;8.990;2022-09-21T05:38:39;7.80;99.90
12111;DHT22;6119;52.372;8.990;2022-09-21T05:41:27;7.80;99.90
12111;DHT22;6119;52.372;8.990;2022-09-21T05:44:16;7.80;99.90
12111;DHT22;6119;52.372;8.990;2022-09-21T05:47:06;7.90;99.90
12111;DHT22;6119;52.372;8.990;2022-09-21T05:50:02;7.90;99.90
12111;DHT22;6119;52.372;8.990;2022-09-21T05:53:01;7.90;99.90
12111;DHT22;6119;52.372;8.990;2022-09-21T05:55:55;8.00;99.90
12111;DHT22;6119;52.372;8.990;2022-09-21T05:58:46;8.00;99.90
12111;DHT22;6119;52.372;8.990;2022-09-21T06:01:48;8.10;99.90
12111;DHT22;6119;52.372;8.990;2022-09-21T06:04:39;8.10;99.90
12111;DHT22;6119;52.372;8.990;2022-09-21T06:07:25;8.20;99.90
12111;DHT22;6119;52.372;8.990;2022-09-21T06:10:13;8.30;99.90
12111;DHT22;6119;52.372;8.990;2022-09-21T06:13:00;8.30;99.90
12111;DHT22;6119;52.372;8.990;2022-09-21T06:15:46;8.40;99.90
12111;DHT22;6119;52.372;8.990;2022-09-21T06:18:37;8.40;99.90
12111;DHT22;6119;52.372;8.990;2022-09-21T06:21:24;8.40;99.90
12111;DHT22;6119;52.372;8.990;2022-09-21T06:24:10;8.50;99.90
12111;DHT22;6119;52.372;8.990;2022-09-21T06:26:57;8.60;99.90
12111;DHT22;6119;52.372;8.990;2022-09-21T06:29:43;8.60;99.90
12111;DHT22;6119;52.372;8.990;2022-09-21T06:32:30;8.70;99.90
12111;DHT22;6119;52.372;8.990;2022-09-21T06:35:17;8.70;99.90
12111;DHT22;6119;52.372;8.990;2022-09-21T06:38:05;8.80;99.90
12111;DHT22;6119;52.372;8.990;2022-09-21T06:40:53;8.90;99.90
12111;DHT22;6119;52.372;8.990;2022-09-21T06:43:39;9.10;99.90
12111;DHT22;6119;52.372;8.990;2022-09-21T06:46:26;9.20;99.90
12111;DHT22;6119;52.372;8.990;2022-09-21T06:49:13;9.20;99.90
12111;DHT22;6119;52.372;8.990;2022-09-21T06:52:01;9.30;99.90
12111;DHT22;6119;52.372;8.990;2022-09-21T06:54:48;9.40;99.90
12111;DHT22;6119;52.372;8.990;2022-09-21T06:57:35;9.50;99.90
12111;DHT22;6119;52.372;8.990;2022-09-21T07:00:22;9.60;99.90
12111;DHT22;6119;52.372;8.990;2022-09-21T07:03:09;9.70;99.90
12111;DHT22;6119;52.372;8.990;2022-09-21T07:05:57;9.70;99.90
12111;DHT22;6119;52.372;8.990;2022-09-21T07:08:44;9.80;99.90
12111;DHT22;6119;52.372;8.990;2022-09-21T07:11:54;9.90;99.90
12111;DHT22;6119;52.372;8.990;2022-09-21T07:14:40;10.00;99.90
12111;DHT22;6119;52.372;8.990;2022-09-21T07:17:30;10.10;99.90
12111;DHT22;6119;52.372;8.990;2022-09-21T07:20:17;10.10;99.90
12111;DHT22;6119;52.372;8.990;2022-09-21T07:23:09;10.30;99.90
12111;DHT22;6119;52.372;8.990;2022-09-21T07:26:00;10.40;99.90
12111;DHT22;6119;52.372;8.990;2022-09-21T07:28:47;10.50;99.90
12111;DHT22;6119;52.372;8.990;2022-09-21T07:31:33;10.50;99.90
12111;DHT22;6119;52.372;8.990;2022-09-21T07:34:20;10.70;99.90
12111;DHT22;6119;52.372;8.990;2022-09-21T07:37:06;10.80;99.90
12111;DHT22;6119;52.372;8.990;2022-09-21T07:39:53;10.90;99.90
12111;DHT22;6119;52.372;8.990;2022-09-21T07:42:42;11.00;99.90
12111;DHT22;6119;52.372;8.990;2022-09-21T07:45:29;11.10;99.90
12111;DHT22;6119;52.372;8.990;2022-09-21T07:48:16;11.20;99.90
12111;DHT22;6119;52.372;8.990;2022-09-21T07:51:03;11.20;99.90
12111;DHT22;6119;52.372;8.990;2022-09-21T07:53:53;11.30;99.90
12111;DHT22;6119;52.372;8.990;2022-09-21T07:56:41;10.40;99.90
12111;DHT22;6119;52.372;8.990;2022-09-21T07:59:49;11.40;99.90
12111;DHT22;6119;52.372;8.990;2022-09-21T08:02:34;11.50;99.90
12111;DHT22;6119;52.372;8.990;2022-09-21T08:05:21;11.60;99.90
12111;DHT22;6119;52.372;8.990;2022-09-21T08:08:07;11.70;99.90
12111;DHT22;6119;52.372;8.990;2022-09-21T08:10:54;11.80;99.90
12111;DHT22;6119;52.372;8.990;2022-09-21T08:13:42;11.80;99.90
12111;DHT22;6119;52.372;8.990;2022-09-21T08:16:30;12.00;99.90
12111;DHT22;6119;52.372;8.990;2022-09-21T08:19:18;12.00;99.90
12111;DHT22;6119;52.372;8.990;2022-09-21T08:22:06;12.20;99.90
12111;DHT22;6119;52.372;8.990;2022-09-21T08:24:52;12.10;99.90
12111;DHT22;6119;52.372;8.990;2022-09-21T08:27:41;12.20;99.90
12111;DHT22;6119;52.372;8.990;2022-09-21T08:30:27;12.40;99.90
12111;DHT22;6119;52.372;8.990;2022-09-21T08:33:17;12.50;99.90
12111;DHT22;6119;52.372;8.990;2022-09-21T08:36:04;12.60;99.90
12111;DHT22;6119;52.372;8.990;2022-09-21T08:38:50;12.60;99.90
12111;DHT22;6119;52.372;8.990;2022-09-21T08:41:54;12.60;99.90
12111;DHT22;6119;52.372;8.990;2022-09-21T08:44:47;12.70;99.90
12111;DHT22;6119;52.372;8.990;2022-09-21T08:47:39;12.90;99.90
12111;DHT22;6119;52.372;8.990;2022-09-21T08:50:33;13.00;99.90
12111;DHT22;6119;52.372;8.990;2022-09-21T08:53:24;13.10;99.90
12111;DHT22;6119;52.372;8.990;2022-09-21T08:56:15;13.20;99.90
12111;DHT22;6119;52.372;8.990;2022-09-21T08:59:01;13.30;99.90
12111;DHT22;6119;52.372;8.990;2022-09-21T09:01:55;13.40;99.90
12111;DHT22;6119;52.372;8.990;2022-09-21T09:04:51;13.60;99.90
12111;DHT22;6119;52.372;8.990;2022-09-21T09:11:13;13.80;99.90
12111;DHT22;6119;52.372;8.990;2022-09-21T09:14:21;14.00;99.90
12111;DHT22;6119;52.372;8.990;2022-09-21T09:17:26;14.10;99.90
12111;DHT22;6119;52.372;8.990;2022-09-21T09:20:18;14.10;99.90
12111;DHT22;6119;52.372;8.990;2022-09-21T09:23:11;14.20;99.90
12111;DHT22;6119;52.372;8.990;2022-09-21T09:26:03;14.30;99.90
12111;DHT22;6119;52.372;8.990;2022-09-21T09:28:53;14.40;99.90
12111;DHT22;6119;52.372;8.990;2022-09-21T09:31:41;14.60;99.90
12111;DHT22;6119;52.372;8.990;2022-09-21T09:34:31;14.70;99.90
12111;DHT22;6119;52.372;8.990;2022-09-21T09:37:22;14.80;99.90
12111;DHT22;6119;52.372;8.990;2022-09-21T09:40:12;14.90;99.90
12111;DHT22;6119;52.372;8.990;2022-09-21T09:43:05;15.10;99.90
12111;DHT22;6119;52.372;8.990;2022-09-21T09:46:01;15.10;99.90
12111;DHT22;6119;52.372;8.990;2022-09-21T09:49:11;15.10;99.90
12111;DHT22;6119;52.372;8.990;2022-09-21T09:51:58;15.30;99.90
12111;DHT22;6119;52.372;8.990;2022-09-21T09:54:45;15.50;99.90
12111;DHT22;6119;52.372;8.990;2022-09-21T09:57:34;15.70;99.90
12111;DHT22;6119;52.372;8.990;2022-09-21T10:00:21;15.70;99.90
12111;DHT22;6119;52.372;8.990;2022-09-21T10:03:15;15.80;99.90
12111;DHT22;6119;52.372;8.990;2022-09-21T10:06:02;15.90;99.90
12111;DHT22;6119;52.372;8.990;2022-09-21T10:08:48;16.00;99.90
12111;DHT22;6119;52.372;8.990;2022-09-21T10:11:37;15.80;99.90
12111;DHT22;6119;52.372;8.990;2022-09-21T10:14:27;16.00;99.90
12111;DHT22;6119;52.372;8.990;2022-09-21T10:17:18;16.30;99.90
12111;DHT22;6119;52.372;8.990;2022-09-21T10:20:06;16.60;99.90
12111;DHT22;6119;52.372;8.990;2022-09-21T10:22:59;16.80;99.90
12111;DHT22;6119;52.372;8.990;2022-09-21T10:25:53;16.80;99.90
12111;DHT22;6119;52.372;8.990;2022-09-21T10:28:54;16.90;99.90
12111;DHT22;6119;52.372;8.990;2022-09-21T10:31:53;17.20;99.90
12111;DHT22;6119;52.372;8.990;2022-09-21T10:34:42;17.10;99.90
12111;DHT22;6119;52.372;8.990;2022-09-21T10:37:45;17.00;99.90
12111;DHT22;6119;52.372;8.990;2022-09-21T10:40:36;17.20;99.90
12111;DHT22;6119;52.372;8.990;2022-09-21T10:43:32;17.10;99.90
12111;DHT22;6119;52.372;8.990;2022-09-21T10:46:32;17.10;99.90
12111;DHT22;6119;52.372;8.990;2022-09-21T10:49:23;17.00;99.90
12111;DHT22;6119;52.372;8.990;2022-09-21T10:52:11;16.90;99.90
12111;DHT22;6119;52.372;8.990;2022-09-21T10:54:57;16.50;99.90
12111;DHT22;6119;52.372;8.990;2022-09-21T10:57:44;16.30;99.90
12111;DHT22;6119;52.372;8.990;2022-09-21T11:00:39;16.30;99.90
12111;DHT22;6119;52.372;8.990;2022-09-21T11:03:39;16.10;99.90
12111;DHT22;6119;52.372;8.990;2022-09-21T11:06:30;16.00;99.90
12111;DHT22;6119;52.372;8.990;2022-09-21T11:09:23;15.90;99.90
12111;DHT22;6119;52.372;8.990;2022-09-21T11:12:25;15.90;99.90
12111;DHT22;6119;52.372;8.990;2022-09-21T11:15:19;16.30;99.90
12111;DHT22;6119;52.372;8.990;2022-09-21T11:18:15;16.30;99.90
12111;DHT22;6119;52.372;8.990;2022-09-21T11:21:08;16.60;99.90
12111;DHT22;6119;52.372;8.990;2022-09-21T11:24:03;16.90;99.90
12111;DHT22;6119;52.372;8.990;2022-09-21T11:26:54;17.10;99.90
12111;DHT22;6119;52.372;8.990;2022-09-21T11:29:51;16.70;99.90
12111;DHT22;6119;52.372;8.990;2022-09-21T11:32:51;16.40;99.90
12111;DHT22;6119;52.372;8.990;2022-09-21T11:35:50;16.10;99.90
12111;DHT22;6119;52.372;8.990;2022-09-21T11:38:49;16.00;99.90
12111;DHT22;6119;52.372;8.990;2022-09-21T11:42:02;16.00;99.90
12111;DHT22;6119;52.372;8.990;2022-09-21T11:44:53;16.00;99.90
12111;DHT22;6119;52.372;8.990;2022-09-21T11:47:54;15.80;99.90
12111;DHT22;6119;52.372;8.990;2022-09-21T11:50:53;15.70;99.90
12111;DHT22;6119;52.372;8.990;2022-09-21T11:54:02;15.50;99.90
12111;DHT22;6119;52.372;8.990;2022-09-21T11:56:55;15.80;99.90
12111;DHT22;6119;52.372;8.990;2022-09-21T12:00:01;15.80;99.90
12111;DHT22;6119;52.372;8.990;2022-09-21T12:03:15;15.90;99.90
12111;DHT22;6119;52.372;8.990;2022-09-21T12:06:22;16.30;99.90
12111;DHT22;6119;52.372;8.990;2022-09-21T12:09:31;16.90;99.90
12111;DHT22;6119;52.372;8.990;2022-09-21T12:12:22;17.10;99.90
12111;DHT22;6119;52.372;8.990;2022-09-21T12:15:15;17.20;99.90
12111;DHT22;6119;52.372;8.990;2022-09-21T12:18:08;17.40;99.90
12111;DHT22;6119;52.372;8.990;2022-09-21T12:21:00;17.50;99.90
12111;DHT22;6119;52.372;8.990;2022-09-21T12:23:53;17.80;99.90
12111;DHT22;6119;52.372;8.990;2022-09-21T12:26:42;18.00;99.90
12111;DHT22;6119;52.372;8.990;2022-09-21T12:29:36;18.00;99.90
12111;DHT22;6119;52.372;8.990;2022-09-21T12:32:36;18.00;99.90
12111;DHT22;6119;52.372;8.990;2022-09-21T12:35:30;18.10;99.90
12111;DHT22;6119;52.372;8.990;2022-09-21T12:38:23;18.40;99.90
12111;DHT22;6119;52.372;8.990;2022-09-21T12:41:16;18.30;99.90
12111;DHT22;6119;52.372;8.990;2022-09-21T12:44:14;18.50;99.90
12111;DHT22;6119;52.372;8.990;2022-09-21T12:47:05;18.30;99.90
12111;DHT22;6119;52.372;8.990;2022-09-21T12:50:00;18.50;99.90
12111;DHT22;6119;52.372;8.990;2022-09-21T12:52:50;18.40;99.90
12111;DHT22;6119;52.372;8.990;2022-09-21T12:55:41;18.50;99.90
12111;DHT22;6119;52.372;8.990;2022-09-21T12:58:56;18.70;99.90
12111;DHT22;6119;52.372;8.990;2022-09-21T13:01:51;18.70;99.90
12111;DHT22;6119;52.372;8.990;2022-09-21T13:04:50;18.80;99.90
12111;DHT22;6119;52.372;8.990;2022-09-21T13:08:06;19.10;99.90
12111;DHT22;6119;52.372;8.990;2022-09-21T13:10:58;18.90;99.90
12111;DHT22;6119;52.372;8.990;2022-09-21T13:13:50;18.70;99.90
12111;DHT22;6119;52.372;8.990;2022-09-21T13:16:38;19.00;99.90
12111;DHT22;6119;52.372;8.990;2022-09-21T13:19:27;19.10;99.90
12111;DHT22;6119;52.372;8.990;2022-09-21T13:22:22;19.20;99.90
12111;DHT22;6119;52.372;8.990;2022-09-21T13:25:19;19.20;99.90
12111;DHT22;6119;52.372;8.990;2022-09-21T13:28:18;19.40;99.90
12111;DHT22;6119;52.372;8.990;2022-09-21T13:31:37;19.30;99.90
12111;DHT22;6119;52.372;8.990;2022-09-21T13:34:34;19.50;99.90
12111;DHT22;6119;52.372;8.990;2022-09-21T13:37:31;19.40;99.90
12111;DHT22;6119;52.372;8.990;2022-09-21T13:40:39;19.00;99.90
12111;DHT22;6119;52.372;8.990;2022-09-21T13:43:45;19.20;99.90
12111;DHT22;6119;52.372;8.990;2022-09-21T13:46:51;19.50;99.90
12111;DHT22;6119;52.372;8.990;2022-09-21T13:49:48;19.60;99.90
12111;DHT22;6119;52.372;8.990;2022-09-21T13:52:45;19.70;99.90
12111;DHT22;6119;52.372;8.990;2022-09-21T13:55:38;19.30;99.90
12111;DHT22;6119;52.372;8.990;2022-09-21T13:58:28;19.30;99.90
12111;DHT22;6119;52.372;8.990;2022-09-21T14:01:18;19.30;99.90
12111;DHT22;6119;52.372;8.990;2022-09-21T14:04:28;19.20;99.90
12111;DHT22;6119;52.372;8.990;2022-09-21T14:07:16;19.00;99.90
12111;DHT22;6119;52.372;8.990;2022-09-21T14:10:07;19.30;99.90
12111;DHT22;6119;52.372;8.990;2022-09-21T14:12:54;19.30;99.90
12111;DHT22;6119;52.372;8.990;2022-09-21T14:15:40;19.40;99.90
12111;DHT22;6119;52.372;8.990;2022-09-21T14:18:36;19.20;99.90
12111;DHT22;6119;52.372;8.990;2022-09-21T14:21:23;18.90;99.90
12111;DHT22;6119;52.372;8.990;2022-09-21T14:24:33;19.20;99.90
12111;DHT22;6119;52.372;8.990;2022-09-21T14:27:25;19.50;99.90
12111;DHT22;6119;52.372;8.990;2022-09-21T14:30:18;19.70;99.90
12111;DHT22;6119;52.372;8.990;2022-09-21T14:33:24;19.50;99.90
12111;DHT22;6119;52.372;8.990;2022-09-21T14:36:17;19.40;99.90
12111;DHT22;6119;52.372;8.990;2022-09-21T14:39:12;19.60;99.90
12111;DHT22;6119;52.372;8.990;2022-09-21T14:42:06;19.70;99.90
12111;DHT22;6119;52.372;8.990;2022-09-21T14:44:59;19.40;99.90
12111;DHT22;6119;52.372;8.990;2022-09-21T14:47:59;19.80;99.90
12111;DHT22;6119;52.372;8.990;2022-09-21T14:50:54;19.60;99.90
12111;DHT22;6119;52.372;8.990;2022-09-21T14:54:01;19.60;99.90
12111;DHT22;6119;52.372;8.990;2022-09-21T14:57:01;20.00;99.90
12111;DHT22;6119;52.372;8.990;2022-09-21T15:00:05;19.90;99.90
12111;DHT22;6119;52.372;8.990;2022-09-21T15:06:17;20.20;99.90
12111;DHT22;6119;52.372;8.990;2022-09-21T15:09:34;20.20;99.90
12111;DHT22;6119;52.372;8.990;2022-09-21T15:12:49;20.30;99.90
12111;DHT22;6119;52.372;8.990;2022-09-21T15:15:44;20.40;99.90
12111;DHT22;6119;52.372;8.990;2022-09-21T15:18:39;20.50;99.90
12111;DHT22;6119;52.372;8.990;2022-09-21T15:21:28;20.50;99.90
12111;DHT22;6119;52.372;8.990;2022-09-21T15:24:27;20.80;99.90
12111;DHT22;6119;52.372;8.990;2022-09-21T15:27:17;20.70;99.90
12111;DHT22;6119;52.372;8.990;2022-09-21T15:30:05;20.80;99.90
12111;DHT22;6119;52.372;8.990;2022-09-21T15:32:55;20.90;99.90
12111;DHT22;6119;52.372;8.990;2022-09-21T15:35:45;20.90;99.90
12111;DHT22;6119;52.372;8.990;2022-09-21T15:38:33;21.00;99.90
12111;DHT22;6119;52.372;8.990;2022-09-21T15:41:36;21.00;99.90
12111;DHT22;6119;52.372;8.990;2022-09-21T15:44:31;21.30;99.90
12111;DHT22;6119;52.372;8.990;2022-09-21T15:47:19;21.50;99.90
12111;DHT22;6119;52.372;8.990;2022-09-21T15:50:12;21.60;99.50
12111;DHT22;6119;52.372;8.990;2022-09-21T15:53:01;21.60;98.90
12111;DHT22;6119;52.372;8.990;2022-09-21T15:55:50;21.60;99.90
12111;DHT22;6119;52.372;8.990;2022-09-21T15:58:37;21.60;99.30
12111;DHT22;6119;52.372;8.990;2022-09-21T16:01:24;21.80;99.10
12111;DHT22;6119;52.372;8.990;2022-09-21T16:04:16;21.60;97.00
12111;DHT22;6119;52.372;8.990;2022-09-21T16:07:06;21.90;98.10
12111;DHT22;6119;52.372;8.990;2022-09-21T16:09:59;21.70;97.80
12111;DHT22;6119;52.372;8.990;2022-09-21T16:12:46;21.70;99.90
12111;DHT22;6119;52.372;8.990;2022-09-21T16:15:33;22.00;99.70
12111;DHT22;6119;52.372;8.990;2022-09-21T16:18:29;21.90;99.90
12111;DHT22;6119;52.372;8.990;2022-09-21T16:21:22;21.90;99.90
12111;DHT22;6119;52.372;8.990;2022-09-21T16:24:17;21.80;99.90
12111;DHT22;6119;52.372;8.990;2022-09-21T16:27:04;21.40;99.90
12111;DHT22;6119;52.372;8.990;2022-09-21T16:29:52;20.70;99.90
12111;DHT22;6119;52.372;8.990;2022-09-21T16:32:40;20.50;99.90
12111;DHT22;6119;52.372;8.990;2022-09-21T16:35:29;20.10;99.90
12111;DHT22;6119;52.372;8.990;2022-09-21T16:38:25;19.90;99.90
12111;DHT22;6119;52.372;8.990;2022-09-21T16:41:14;19.70;99.90
12111;DHT22;6119;52.372;8.990;2022-09-21T16:44:02;19.50;99.90
12111;DHT22;6119;52.372;8.990;2022-09-21T16:46:52;19.20;99.90
12111;DHT22;6119;52.372;8.990;2022-09-21T16:49:41;19.00;99.90
12111;DHT22;6119;52.372;8.990;2022-09-21T16:52:29;18.70;99.90
12111;DHT22;6119;52.372;8.990;2022-09-21T16:55:17;18.50;99.90
12111;DHT22;6119;52.372;8.990;2022-09-21T16:58:07;18.50;99.90
12111;DHT22;6119;52.372;8.990;2022-09-21T17:00:55;18.30;99.90
12111;DHT22;6119;52.372;8.990;2022-09-21T17:03:45;18.10;99.90
12111;DHT22;6119;52.372;8.990;2022-09-21T17:06:32;17.90;99.90
12111;DHT22;6119;52.372;8.990;2022-09-21T17:09:26;17.80;99.90
12111;DHT22;6119;52.372;8.990;2022-09-21T17:12:16;17.60;99.90
12111;DHT22;6119;52.372;8.990;2022-09-21T17:15:04;17.50;99.90
12111;DHT22;6119;52.372;8.990;2022-09-21T17:17:52;17.40;99.90
12111;DHT22;6119;52.372;8.990;2022-09-21T17:20:40;17.30;99.90
12111;DHT22;6119;52.372;8.990;2022-09-21T17:23:27;17.20;99.90
12111;DHT22;6119;52.372;8.990;2022-09-21T17:26:15;17.10;99.90
12111;DHT22;6119;52.372;8.990;2022-09-21T17:29:12;16.90;99.90
12111;DHT22;6119;52.372;8.990;2022-09-21T17:32:02;16.80;99.90
12111;DHT22;6119;52.372;8.990;2022-09-21T17:34:57;16.70;99.90
12111;DHT22;6119;52.372;8.990;2022-09-21T17:37:45;16.50;99.90
12111;DHT22;6119;52.372;8.990;2022-09-21T17:40:33;16.50;99.90
12111;DHT22;6119;52.372;8.990;2022-09-21T17:43:34;16.40;99.90
12111;DHT22;6119;52.372;8.990;2022-09-21T17:46:25;16.20;99.90
12111;DHT22;6119;52.372;8.990;2022-09-21T17:49:15;16.10;99.90
12111;DHT22;6119;52.372;8.990;2022-09-21T17:52:02;16.00;99.90
12111;DHT22;6119;52.372;8.990;2022-09-21T17:55:09;15.90;99.90
12111;DHT22;6119;52.372;8.990;2022-09-21T17:58:11;15.80;99.90
12111;DHT22;6119;52.372;8.990;2022-09-21T18:01:00;15.70;99.90
12111;DHT22;6119;52.372;8.990;2022-09-21T18:03:49;15.60;99.90
12111;DHT22;6119;52.372;8.990;2022-09-21T18:06:38;15.50;99.90
12111;DHT22;6119;52.372;8.990;2022-09-21T18:09:25;15.40;99.90
12111;DHT22;6119;52.372;8.990;2022-09-21T18:16:01;15.30;99.90
12111;DHT22;6119;52.372;8.990;2022-09-21T18:18:57;15.20;99.90
12111;DHT22;6119;52.372;8.990;2022-09-21T18:21:50;15.10;99.90
12111;DHT22;6119;52.372;8.990;2022-09-21T18:24:37;15.10;99.90
12111;DHT22;6119;52.372;8.990;2022-09-21T18:27:25;15.00;99.90
12111;DHT22;6119;52.372;8.990;2022-09-21T18:30:12;14.90;99.90
12111;DHT22;6119;52.372;8.990;2022-09-21T18:33:07;14.80;99.90
12111;DHT22;6119;52.372;8.990;2022-09-21T18:36:11;14.80;99.90
12111;DHT22;6119;52.372;8.990;2022-09-21T18:39:13;14.70;99.90
12111;DHT22;6119;52.372;8.990;2022-09-21T18:42:23;14.70;99.90
12111;DHT22;6119;52.372;8.990;2022-09-21T18:45:17;14.70;99.90